createdAt,value
2018-07-24T00:01:30.700Z,24.00
2018-07-24T00:03:59.517Z,24.10
2018-07-24T00:06:28.332Z,24.10
2018-07-24T00:08:57.653Z,24.10
2018-07-24T00:11:26.480Z,24.10
2018-07-24T00:13:55.308Z,24.10
2018-07-24T00:16:24.195Z,24.10
2018-07-24T00:18:53.043Z,24.10
2018-07-24T00:21:21.860Z,24.10
2018-07-24T00:23:50.718Z,24.10
2018-07-24T00:26:19.556Z,24.10
2018-07-24T00:28:48.448Z,24.10
2018-07-24T00:31:17.334Z,24.00
2018-07-24T00:33:46.157Z,24.10
2018-07-24T00:36:14.971Z,24.10
2018-07-24T00:38:44.217Z,24.00
2018-07-24T00:41:13.087Z,24.10
2018-07-24T00:43:41.904Z,24.10
2018-07-24T00:46:10.861Z,24.10
2018-07-24T00:48:39.676Z,24.00
2018-07-24T00:51:08.555Z,24.10
2018-07-24T00:53:37.404Z,24.10
2018-07-24T00:56:06.710Z,24.00
2018-07-24T00:58:35.603Z,23.90
2018-07-24T01:01:04.487Z,24.00
2018-07-24T01:03:33.411Z,24.00
2018-07-24T01:08:30.727Z,24.00
2018-07-24T01:10:59.561Z,24.00
2018-07-24T01:13:28.385Z,24.00
2018-07-24T01:15:57.247Z,23.90
2018-07-24T01:18:26.065Z,23.80
2018-07-24T01:20:54.892Z,23.80
2018-07-24T01:23:23.818Z,23.80
2018-07-24T01:25:52.628Z,23.90
2018-07-24T01:28:21.440Z,23.90
2018-07-24T01:30:50.316Z,23.90
2018-07-24T01:33:19.141Z,23.90
2018-07-24T01:35:48.001Z,23.90
2018-07-24T01:38:16.939Z,23.80
2018-07-24T01:40:45.823Z,23.80
2018-07-24T01:43:14.691Z,23.80
2018-07-24T01:45:43.589Z,23.80
2018-07-24T01:48:12.438Z,23.60
2018-07-24T01:50:41.319Z,23.50
2018-07-24T01:53:10.224Z,23.50
2018-07-24T01:55:39.092Z,23.50
2018-07-24T02:00:36.428Z,23.60
2018-07-24T02:03:05.267Z,23.60
2018-07-24T02:05:34.081Z,23.60
2018-07-24T02:08:03.000Z,23.60
2018-07-24T02:10:31.872Z,23.60
2018-07-24T02:13:00.713Z,23.60
2018-07-24T02:15:29.679Z,23.60
2018-07-24T02:17:58.548Z,23.60
2018-07-24T02:20:27.385Z,23.60
2018-07-24T02:22:56.277Z,23.60
2018-07-24T02:25:25.139Z,23.50
2018-07-24T02:27:53.996Z,23.50
2018-07-24T02:30:22.894Z,23.40
2018-07-24T02:32:51.728Z,23.30
2018-07-24T02:35:20.600Z,23.30
2018-07-24T02:37:49.527Z,23.10
2018-07-24T02:40:18.342Z,23.10
2018-07-24T02:42:47.200Z,23.00
2018-07-24T02:45:16.197Z,22.80
2018-07-24T02:47:45.061Z,22.50
2018-07-24T02:50:13.884Z,22.60
2018-07-24T02:52:42.759Z,22.80
2018-07-24T02:55:11.613Z,22.90
2018-07-24T02:57:40.431Z,22.90
2018-07-24T03:00:09.325Z,23.00
2018-07-24T03:02:38.186Z,23.00
2018-07-24T03:05:07.277Z,23.10
2018-07-24T03:07:36.120Z,23.20
2018-07-24T03:10:05.243Z,23.20
2018-07-24T03:12:34.167Z,23.10
2018-07-24T03:15:03.058Z,23.20
2018-07-24T03:17:31.907Z,23.30
2018-07-24T03:20:00.781Z,23.20
2018-07-24T03:22:29.645Z,23.20
2018-07-24T03:24:58.456Z,23.20
2018-07-24T03:27:27.333Z,23.30
2018-07-24T03:29:56.247Z,23.40
2018-07-24T03:32:25.139Z,23.40
2018-07-24T03:34:54.008Z,23.40
2018-07-24T03:37:22.987Z,23.40
2018-07-24T03:39:51.857Z,23.40
2018-07-24T03:42:20.724Z,23.40
2018-07-24T03:44:49.646Z,23.40
2018-07-24T03:47:18.452Z,23.50
2018-07-24T03:49:47.316Z,23.50
2018-07-24T03:52:16.279Z,23.50
2018-07-24T03:54:45.103Z,23.60
2018-07-24T03:57:13.952Z,23.60
2018-07-24T03:59:42.804Z,23.60
2018-07-24T04:02:11.634Z,23.60
2018-07-24T04:04:40.538Z,23.60
2018-07-24T04:07:09.481Z,23.70
2018-07-24T04:09:38.333Z,23.80
2018-07-24T04:12:07.152Z,23.70
2018-07-24T04:14:36.052Z,23.80
2018-07-24T04:17:04.872Z,23.80
2018-07-24T04:19:33.728Z,23.80
2018-07-24T04:22:02.585Z,23.80
2018-07-24T04:24:32.388Z,23.90
2018-07-24T04:27:01.351Z,23.90
2018-07-24T04:29:30.256Z,23.90
2018-07-24T04:31:59.112Z,23.90
2018-07-24T04:34:28.028Z,23.90
2018-07-24T04:36:56.958Z,23.90
2018-07-24T04:39:25.820Z,24.00
2018-07-24T04:41:54.708Z,24.00
2018-07-24T04:44:23.624Z,24.00
2018-07-24T04:46:52.517Z,24.00
2018-07-24T04:49:21.344Z,24.00
2018-07-24T04:51:50.249Z,24.10
2018-07-24T04:54:19.080Z,24.10
2018-07-24T04:56:47.897Z,24.10
2018-07-24T04:59:16.756Z,24.10
2018-07-24T05:01:45.565Z,24.20
2018-07-24T05:04:14.424Z,24.20
2018-07-24T05:06:43.276Z,24.20
2018-07-24T05:09:13.808Z,24.20
2018-07-24T05:11:43.469Z,24.20
2018-07-24T05:14:12.603Z,24.20
2018-07-24T05:16:42.123Z,24.20
2018-07-24T05:19:11.119Z,24.30
2018-07-24T05:21:39.999Z,24.30
2018-07-24T05:24:08.875Z,24.30
2018-07-24T05:26:37.797Z,24.30
2018-07-24T05:29:06.664Z,24.30
2018-07-24T05:31:35.564Z,24.40
2018-07-24T05:34:04.949Z,24.40
2018-07-24T05:36:33.764Z,24.40
2018-07-24T05:39:02.724Z,24.40
2018-07-24T05:41:31.612Z,24.50
2018-07-24T05:44:00.404Z,24.50
2018-07-24T05:46:29.261Z,24.50
2018-07-24T05:48:58.188Z,24.50
2018-07-24T05:51:27.087Z,24.50
2018-07-24T05:53:55.950Z,24.50
2018-07-24T05:58:53.358Z,24.60
2018-07-24T06:01:22.219Z,24.60
2018-07-24T06:03:51.134Z,24.70
2018-07-24T06:08:48.412Z,24.70
2018-07-24T06:11:17.268Z,24.70
2018-07-24T06:13:46.081Z,24.70
2018-07-24T06:16:14.917Z,24.80
2018-07-24T06:18:43.849Z,24.80
2018-07-24T06:21:12.722Z,24.80
2018-07-24T06:23:41.699Z,24.80
2018-07-24T06:26:10.551Z,24.80
2018-07-24T06:28:39.511Z,24.80
2018-07-24T06:31:08.344Z,24.90
2018-07-24T06:33:37.352Z,24.90
2018-07-24T06:36:06.176Z,24.90
2018-07-24T06:38:35.008Z,24.90
2018-07-24T06:41:03.875Z,25.00
2018-07-24T06:43:32.910Z,25.00
2018-07-24T06:46:01.828Z,25.00
2018-07-24T06:48:30.678Z,25.00
2018-07-24T06:50:59.587Z,25.00
2018-07-24T06:53:28.461Z,25.00
2018-07-24T06:55:57.341Z,25.00
2018-07-24T06:58:26.247Z,25.00
2018-07-24T07:00:55.157Z,25.10
2018-07-24T07:03:24.141Z,25.10
2018-07-24T07:05:53.036Z,25.10
2018-07-24T07:08:21.899Z,25.10
2018-07-24T07:10:50.776Z,25.10
2018-07-24T07:13:19.722Z,25.10
2018-07-24T07:15:56.950Z,25.10
2018-07-24T07:18:25.868Z,25.10
2018-07-24T07:20:58.620Z,25.10
2018-07-24T07:23:28.351Z,25.10
2018-07-24T07:25:57.361Z,25.10
2018-07-24T07:28:26.317Z,25.20
2018-07-24T07:30:55.384Z,25.20
2018-07-24T07:33:30.355Z,25.20
2018-07-24T07:35:59.729Z,25.20
2018-07-24T07:38:28.672Z,25.20
2018-07-24T07:40:57.701Z,25.30
2018-07-24T07:43:26.652Z,25.30
2018-07-24T07:45:55.557Z,25.30
2018-07-24T07:48:24.428Z,25.30
2018-07-24T07:50:53.383Z,25.40
2018-07-24T07:53:22.348Z,25.40
2018-07-24T07:55:51.394Z,25.40
2018-07-24T07:58:20.515Z,25.40
2018-07-24T08:00:49.488Z,25.40
2018-07-24T08:03:18.389Z,25.50
2018-07-24T08:05:47.288Z,25.50
2018-07-24T08:08:16.279Z,25.50
2018-07-24T08:10:45.376Z,25.50
2018-07-24T08:13:14.188Z,25.50
2018-07-24T08:15:43.045Z,25.50
2018-07-24T08:18:11.953Z,25.60
2018-07-24T08:20:47.343Z,25.60
2018-07-24T08:23:16.239Z,25.60
2018-07-24T08:25:45.184Z,25.60
2018-07-24T08:28:14.094Z,25.70
2018-07-24T08:30:43.447Z,25.70
2018-07-24T08:33:12.372Z,25.70
2018-07-24T08:35:41.193Z,25.70
2018-07-24T08:38:10.140Z,25.70
2018-07-24T08:40:39.010Z,25.70
2018-07-24T08:43:07.960Z,25.70
2018-07-24T08:45:36.912Z,25.70
2018-07-24T08:48:05.887Z,25.70
2018-07-24T08:50:34.775Z,25.80
2018-07-24T08:53:03.837Z,25.80
2018-07-24T08:55:32.921Z,25.80
2018-07-24T08:58:01.485Z,25.80
2018-07-24T09:00:30.666Z,25.80
2018-07-24T09:02:59.616Z,25.80
2018-07-24T09:05:28.548Z,25.80
2018-07-24T09:07:57.495Z,25.80
2018-07-24T09:10:26.420Z,25.80
2018-07-24T09:12:55.316Z,25.90
2018-07-24T09:15:24.277Z,25.90
2018-07-24T09:17:53.156Z,25.90
2018-07-24T09:20:21.975Z,25.90
2018-07-24T09:22:50.872Z,25.90
2018-07-24T09:25:19.680Z,25.90
2018-07-24T09:27:48.658Z,25.90
2018-07-24T09:30:17.533Z,26.00
2018-07-24T09:32:46.415Z,26.00
2018-07-24T09:35:15.390Z,26.00
2018-07-24T09:37:44.289Z,26.00
2018-07-24T09:40:13.266Z,26.00
2018-07-24T09:42:42.220Z,26.00
2018-07-24T09:45:11.113Z,26.10
2018-07-24T09:47:39.950Z,26.10
2018-07-24T09:50:10.676Z,26.10
2018-07-24T09:52:40.100Z,26.10
2018-07-24T09:55:09.031Z,26.10
2018-07-24T09:57:37.958Z,26.20
2018-07-24T10:00:08.296Z,26.20
2018-07-24T10:02:38.381Z,26.20
2018-07-24T10:05:07.758Z,26.20
2018-07-24T10:07:36.676Z,26.20
2018-07-24T10:12:38.196Z,26.20
2018-07-24T10:15:19.168Z,26.20
2018-07-24T10:17:48.262Z,26.20
2018-07-24T10:20:21.205Z,26.30
2018-07-24T10:22:56.474Z,26.30
2018-07-24T10:28:29.695Z,26.40
2018-07-24T10:30:58.876Z,26.40
2018-07-24T10:33:28.804Z,26.40
2018-07-24T10:35:57.823Z,26.40
2018-07-24T10:38:26.882Z,26.40
2018-07-24T10:40:55.862Z,26.40
2018-07-24T10:45:53.421Z,26.40
2018-07-24T10:48:22.680Z,26.40
2018-07-24T10:50:51.541Z,26.40
2018-07-24T10:53:20.403Z,26.50
2018-07-24T10:55:49.359Z,26.50
2018-07-24T10:58:18.234Z,26.50
2018-07-24T11:00:47.101Z,26.50
2018-07-24T11:03:16.124Z,26.50
2018-07-24T11:05:45.000Z,26.50
2018-07-24T11:08:15.726Z,26.50
2018-07-24T11:10:44.812Z,26.50
2018-07-24T11:13:13.662Z,26.50
2018-07-24T11:18:11.181Z,26.60
2018-07-24T11:20:40.065Z,26.60
2018-07-24T11:23:09.168Z,26.60
2018-07-24T11:25:39.954Z,26.70
2018-07-24T11:28:08.892Z,26.70
2018-07-24T11:33:06.662Z,26.70
2018-07-24T11:35:35.926Z,26.60
2018-07-24T11:38:05.092Z,26.70
2018-07-24T11:40:34.355Z,26.70
2018-07-24T11:43:03.172Z,26.60
2018-07-24T11:45:32.402Z,26.70
2018-07-24T11:48:01.265Z,26.70
2018-07-24T11:50:30.164Z,26.70
2018-07-24T11:52:59.044Z,26.70
2018-07-24T11:55:27.906Z,26.80
2018-07-24T11:57:56.761Z,26.80
2018-07-24T12:00:27.904Z,26.80
2018-07-24T12:05:25.543Z,26.80
2018-07-24T12:07:54.528Z,26.80
2018-07-24T12:10:23.469Z,26.80
2018-07-24T12:12:52.598Z,26.80
2018-07-24T12:15:22.145Z,26.80
2018-07-24T12:17:51.113Z,26.90
2018-07-24T12:20:25.950Z,26.90
2018-07-24T12:22:56.932Z,26.90
2018-07-24T12:25:25.867Z,26.90
2018-07-24T12:28:04.123Z,26.80
2018-07-24T12:30:33.038Z,26.80
2018-07-24T12:33:02.403Z,26.90
2018-07-24T12:35:31.459Z,26.80
2018-07-24T12:38:00.320Z,26.80
2018-07-24T12:40:29.883Z,26.80
2018-07-24T12:42:59.235Z,26.80
2018-07-24T12:45:28.150Z,26.80
2018-07-24T12:47:57.099Z,26.80
2018-07-24T12:50:26.036Z,26.80
2018-07-24T12:52:55.499Z,26.80
2018-07-24T12:55:25.652Z,26.90
2018-07-24T12:57:54.593Z,26.80
2018-07-24T13:00:23.656Z,26.80
2018-07-24T13:02:52.692Z,26.80
2018-07-24T13:05:22.016Z,26.70
2018-07-24T13:07:50.936Z,26.70
2018-07-24T13:10:20.823Z,26.70
2018-07-24T13:12:49.718Z,26.70
2018-07-24T13:15:18.651Z,26.70
2018-07-24T13:17:47.489Z,26.70
2018-07-24T13:20:16.483Z,26.70
2018-07-24T13:22:45.385Z,26.70
2018-07-24T13:25:14.474Z,26.70
2018-07-24T13:27:43.433Z,26.70
2018-07-24T13:30:18.543Z,26.80
2018-07-24T13:32:47.559Z,26.80
2018-07-24T13:35:16.533Z,26.80
2018-07-24T13:37:45.428Z,26.80
2018-07-24T13:40:14.388Z,26.80
2018-07-24T13:42:44.131Z,26.70
2018-07-24T13:45:13.002Z,26.80
2018-07-24T13:47:41.895Z,26.80
2018-07-24T13:50:10.713Z,26.80
2018-07-24T13:52:39.545Z,26.80
2018-07-24T13:55:09.290Z,26.80
2018-07-24T13:57:38.191Z,26.80
2018-07-24T14:00:07.113Z,26.80
2018-07-24T14:02:36.072Z,26.80
2018-07-24T14:05:05.033Z,26.90
2018-07-24T14:07:34.116Z,26.80
2018-07-24T14:10:02.978Z,26.90
2018-07-24T14:12:31.906Z,26.80
2018-07-24T14:15:00.833Z,26.80
2018-07-24T14:17:29.947Z,26.80
2018-07-24T14:20:00.736Z,26.80
2018-07-24T14:22:30.319Z,26.90
2018-07-24T14:24:59.192Z,26.90
2018-07-24T14:27:28.124Z,26.90
2018-07-24T14:29:57.005Z,26.90
2018-07-24T14:32:27.183Z,26.90
2018-07-24T14:34:56.012Z,26.90
2018-07-24T14:37:24.907Z,26.90
2018-07-24T14:39:53.761Z,26.90
2018-07-24T14:42:22.579Z,26.90
2018-07-24T14:44:51.472Z,26.90
2018-07-24T14:47:20.368Z,26.90
2018-07-24T14:49:49.256Z,26.90
2018-07-24T14:52:18.200Z,26.90
2018-07-24T14:54:47.022Z,26.90
2018-07-24T14:57:15.887Z,26.90
2018-07-24T14:59:44.864Z,26.90
2018-07-24T15:02:13.825Z,26.90
2018-07-24T15:07:11.374Z,27.00
2018-07-24T15:09:40.374Z,27.00
2018-07-24T15:12:09.332Z,27.00
2018-07-24T15:14:38.220Z,26.90
2018-07-24T15:17:07.165Z,26.90
2018-07-24T15:19:42.756Z,26.90
2018-07-24T15:22:11.617Z,26.90
2018-07-24T15:24:40.472Z,26.90
2018-07-24T15:27:09.490Z,26.90
2018-07-24T15:29:39.256Z,26.90
2018-07-24T15:32:08.127Z,27.00
2018-07-24T15:34:37.151Z,27.00
2018-07-24T15:37:06.201Z,27.00
2018-07-24T15:39:35.188Z,27.00
2018-07-24T15:42:06.991Z,27.10
2018-07-24T15:44:38.731Z,27.00
2018-07-24T15:47:07.663Z,27.00
2018-07-24T15:49:36.492Z,26.90
2018-07-24T15:52:05.443Z,27.00
2018-07-24T15:54:34.303Z,27.00
2018-07-24T15:57:03.127Z,27.00
2018-07-24T15:59:31.997Z,27.00
2018-07-24T16:02:00.955Z,27.00
2018-07-24T16:04:29.843Z,27.00
2018-07-24T16:09:27.280Z,27.00
2018-07-24T16:11:56.107Z,27.00
2018-07-24T16:14:25.084Z,27.10
2018-07-24T16:16:55.508Z,27.10
2018-07-24T16:19:27.218Z,27.00
2018-07-24T16:21:56.280Z,27.10
2018-07-24T16:24:25.175Z,27.10
2018-07-24T16:26:53.997Z,27.10
2018-07-24T16:29:22.888Z,27.00
2018-07-24T16:31:51.768Z,27.00
2018-07-24T16:34:21.495Z,27.00
2018-07-24T16:36:50.440Z,27.10
2018-07-24T16:39:19.324Z,27.10
2018-07-24T16:41:48.141Z,27.10
2018-07-24T16:44:17.024Z,27.10
2018-07-24T16:46:45.928Z,27.10
2018-07-24T16:49:14.894Z,27.10
2018-07-24T16:51:43.834Z,27.00
2018-07-24T16:54:12.700Z,27.00
2018-07-24T16:56:41.624Z,27.00
2018-07-24T16:59:10.440Z,26.90
2018-07-24T17:01:39.241Z,26.90
2018-07-24T17:04:08.180Z,26.90
2018-07-24T17:06:37.027Z,26.90
2018-07-24T17:09:08.721Z,26.90
2018-07-24T17:11:38.124Z,26.90
2018-07-24T17:14:07.112Z,26.90
2018-07-24T17:16:36.083Z,26.80
2018-07-24T17:19:04.956Z,26.80
2018-07-24T17:21:33.781Z,26.80
2018-07-24T17:24:02.716Z,26.80
2018-07-24T17:26:32.176Z,26.80
2018-07-24T17:29:01.008Z,26.80
2018-07-24T17:31:29.889Z,26.80
2018-07-24T17:33:58.756Z,26.80
2018-07-24T17:36:27.678Z,26.80
2018-07-24T17:41:25.141Z,26.70
2018-07-24T17:43:54.006Z,26.70
2018-07-24T17:46:24.121Z,26.70
2018-07-24T17:48:53.089Z,26.70
2018-07-24T17:53:50.502Z,26.60
2018-07-24T17:56:19.464Z,26.70
2018-07-24T17:58:48.317Z,26.60
2018-07-24T18:01:17.632Z,26.60
2018-07-24T18:03:46.459Z,26.60
2018-07-24T18:06:15.304Z,26.60
2018-07-24T18:08:44.269Z,26.60
2018-07-24T18:11:13.072Z,26.60
2018-07-24T18:13:42.148Z,26.50
2018-07-24T18:16:10.988Z,26.60
2018-07-24T18:18:39.893Z,26.50
2018-07-24T18:21:08.707Z,26.50
2018-07-24T18:23:37.515Z,26.50
2018-07-24T18:26:06.583Z,26.50
2018-07-24T18:28:35.395Z,26.50
2018-07-24T18:31:04.198Z,26.50
2018-07-24T18:33:34.031Z,26.50
2018-07-24T18:36:02.828Z,26.50
2018-07-24T18:38:31.744Z,26.40
2018-07-24T18:41:00.767Z,26.40
2018-07-24T18:43:29.558Z,26.40
2018-07-24T18:45:58.370Z,26.40
2018-07-24T18:48:27.244Z,26.40
2018-07-24T18:50:56.053Z,26.30
2018-07-24T18:53:25.044Z,26.30
2018-07-24T18:55:54.544Z,26.30
2018-07-24T18:58:23.361Z,26.30
2018-07-24T19:00:52.203Z,26.30
2018-07-24T19:03:21.068Z,26.20
2018-07-24T19:05:49.960Z,26.20
2018-07-24T19:08:18.851Z,26.20
2018-07-24T19:10:47.758Z,26.20
2018-07-24T19:13:16.566Z,26.20
2018-07-24T19:18:13.872Z,26.20
2018-07-24T19:20:42.732Z,26.20
2018-07-24T19:23:11.588Z,26.20
2018-07-24T19:25:40.449Z,26.20
2018-07-24T19:28:09.353Z,26.20
2018-07-24T19:30:38.173Z,26.20
2018-07-24T19:33:07.060Z,26.20
2018-07-24T19:35:35.921Z,26.20
2018-07-24T19:40:33.237Z,26.20
2018-07-24T19:43:02.105Z,26.10
2018-07-24T19:45:30.910Z,26.10
2018-07-24T19:47:59.808Z,26.10
2018-07-24T19:50:28.612Z,26.10
2018-07-24T19:52:57.868Z,26.10
2018-07-24T19:55:27.500Z,26.10
2018-07-24T19:57:56.402Z,26.10
2018-07-24T20:00:25.201Z,26.10
2018-07-24T20:02:54.163Z,26.10
2018-07-24T20:05:47.645Z,26.10
2018-07-24T20:08:16.533Z,26.10
2018-07-24T20:10:45.368Z,26.10
2018-07-24T20:13:14.331Z,26.10
2018-07-24T20:15:43.191Z,26.10
2018-07-24T20:20:40.686Z,26.00
2018-07-24T20:23:12.421Z,26.10
2018-07-24T20:25:41.548Z,26.10
2018-07-24T20:28:10.645Z,26.10
2018-07-24T20:30:41.483Z,26.10
2018-07-24T20:33:11.388Z,26.10
2018-07-24T20:35:40.441Z,26.00
2018-07-24T20:38:09.350Z,26.00
2018-07-24T20:40:38.273Z,26.00
2018-07-24T20:43:07.161Z,26.00
2018-07-24T20:45:36.028Z,26.00
2018-07-24T20:48:04.968Z,26.00
2018-07-24T20:50:33.891Z,26.00
2018-07-24T20:53:02.742Z,26.00
2018-07-24T20:55:31.608Z,25.90
2018-07-24T20:58:00.569Z,25.90
2018-07-24T21:00:29.792Z,25.90
2018-07-24T21:02:58.914Z,25.90
2018-07-24T21:05:27.913Z,25.90
2018-07-24T21:07:56.937Z,25.90
2018-07-24T21:10:25.819Z,25.90
2018-07-24T21:12:54.822Z,25.90
2018-07-24T21:15:23.703Z,25.90
2018-07-24T21:17:52.547Z,25.90
2018-07-24T21:20:21.496Z,25.80
2018-07-24T21:22:50.334Z,25.90
2018-07-24T21:25:19.207Z,25.80
2018-07-24T21:27:48.118Z,25.80
2018-07-24T21:30:16.969Z,25.80
2018-07-24T21:32:45.797Z,25.80
2018-07-24T21:35:14.669Z,25.80
2018-07-24T21:37:43.505Z,25.70
2018-07-24T21:40:12.348Z,25.70
2018-07-24T21:42:41.671Z,25.50
2018-07-24T21:45:10.530Z,25.40
2018-07-24T21:47:39.394Z,25.50
2018-07-24T21:50:08.315Z,25.50
2018-07-24T21:52:37.266Z,25.30
2018-07-24T21:55:06.208Z,25.30
2018-07-24T21:57:35.180Z,25.30
2018-07-24T22:00:04.147Z,25.30
2018-07-24T22:02:33.140Z,25.40
2018-07-24T22:05:02.001Z,25.40
2018-07-24T22:07:30.853Z,25.40
2018-07-24T22:09:59.724Z,25.30
2018-07-24T22:12:28.565Z,25.30
2018-07-24T22:14:57.440Z,25.20
2018-07-24T22:17:26.343Z,25.10
2018-07-24T22:19:55.184Z,25.10
2018-07-24T22:22:24.032Z,25.10
2018-07-24T22:24:52.923Z,25.20
2018-07-24T22:27:21.758Z,25.20
2018-07-24T22:32:19.106Z,25.10
2018-07-24T22:34:47.972Z,25.10
2018-07-24T22:37:16.838Z,25.10
2018-07-24T22:39:45.732Z,25.10
2018-07-24T22:42:14.585Z,25.10
2018-07-24T22:44:43.419Z,25.10
2018-07-24T22:47:12.352Z,25.00
2018-07-24T22:49:41.193Z,25.10
2018-07-24T22:52:10.088Z,25.00
2018-07-24T22:57:07.445Z,25.00
2018-07-24T22:59:36.279Z,25.00
2018-07-24T23:02:05.193Z,24.90
2018-07-24T23:04:34.047Z,24.80
2018-07-24T23:07:02.922Z,24.80
2018-07-24T23:09:31.799Z,24.70
2018-07-24T23:12:00.745Z,24.70
2018-07-24T23:14:29.605Z,24.70
2018-07-24T23:16:58.521Z,24.80
2018-07-24T23:19:27.493Z,24.80
2018-07-24T23:21:56.356Z,24.70
2018-07-24T23:24:25.265Z,24.70
2018-07-24T23:26:54.209Z,24.70
2018-07-24T23:29:23.211Z,24.60
2018-07-24T23:31:52.118Z,24.40
2018-07-24T23:34:21.043Z,24.20
2018-07-24T23:36:49.848Z,24.20
2018-07-24T23:39:18.734Z,24.20
2018-07-24T23:41:47.626Z,24.30
2018-07-24T23:44:16.529Z,24.20
2018-07-24T23:46:45.387Z,24.30
2018-07-24T23:49:14.360Z,24.30
2018-07-24T23:51:43.217Z,24.30
2018-07-24T23:54:12.027Z,24.30
2018-07-24T23:56:40.883Z,24.40
2018-07-24T23:59:09.706Z,24.40
